createdAt,value
2018-01-30T00:00:46.322Z,0
2018-01-30T00:01:56.371Z,0
2018-01-30T00:03:06.422Z,0
2018-01-30T00:04:16.470Z,0
2018-01-30T00:05:26.270Z,0
2018-01-30T00:06:36.047Z,0
2018-01-30T00:07:45.576Z,0
2018-01-30T00:08:55.634Z,0
2018-01-30T00:10:05.697Z,0
2018-01-30T00:11:15.745Z,0
2018-01-30T00:12:25.602Z,0
2018-01-30T00:13:35.648Z,0
2018-01-30T00:14:45.433Z,0
2018-01-30T00:15:55.498Z,0
2018-01-30T00:17:05.302Z,0
2018-01-30T00:18:15.165Z,0
2018-01-30T00:19:25.210Z,0
2018-01-30T00:20:35.266Z,0
2018-01-30T00:21:45.333Z,0
2018-01-30T00:22:55.382Z,0
2018-01-30T00:24:05.535Z,0
2018-01-30T00:25:15.595Z,0
2018-01-30T00:26:25.398Z,0
2018-01-30T00:27:35.533Z,0
2018-01-30T00:28:45.597Z,0
2018-01-30T00:29:55.381Z,0
2018-01-30T00:31:05.428Z,0
2018-01-30T00:32:15.483Z,0
2018-01-30T00:33:25.268Z,0
2018-01-30T00:34:35.329Z,0
2018-01-30T00:35:45.426Z,0
2018-01-30T00:36:55.474Z,0
2018-01-30T00:38:05.260Z,0
2018-01-30T00:39:15.313Z,0
2018-01-30T00:40:25.358Z,0
2018-01-30T00:41:35.456Z,0
2018-01-30T00:42:45.255Z,0
2018-01-30T00:43:55.313Z,0
2018-01-30T00:45:04.865Z,0
2018-01-30T00:46:14.925Z,0
2018-01-30T00:47:24.958Z,0
2018-01-30T00:48:35.017Z,0
2018-01-30T00:49:45.057Z,0
2018-01-30T00:50:54.868Z,0
2018-01-30T00:52:04.925Z,0
2018-01-30T00:53:15.026Z,0
2018-01-30T00:54:25.083Z,0
2018-01-30T00:55:34.864Z,0
2018-01-30T00:56:44.663Z,0
2018-01-30T00:57:54.189Z,0
2018-01-30T00:59:04.270Z,0
2018-01-30T01:00:14.065Z,0
2018-01-30T01:01:23.869Z,0
2018-01-30T01:02:33.673Z,0
2018-01-30T01:03:43.711Z,0
2018-01-30T01:04:53.761Z,0
2018-01-30T01:06:03.808Z,0
2018-01-30T01:07:13.870Z,0
2018-01-30T01:08:23.915Z,0
2018-01-30T01:09:33.711Z,0
2018-01-30T01:10:43.769Z,0
2018-01-30T01:11:53.816Z,0
2018-01-30T01:13:03.608Z,0
2018-01-30T01:14:13.401Z,0
2018-01-30T01:15:23.188Z,0
2018-01-30T01:16:33.289Z,0
2018-01-30T01:17:43.524Z,0
2018-01-30T01:18:53.570Z,0
2018-01-30T01:20:03.623Z,0
2018-01-30T01:21:13.676Z,0
2018-01-30T01:22:23.447Z,0
2018-01-30T01:23:33.553Z,0
2018-01-30T01:24:43.611Z,0
2018-01-30T01:25:53.666Z,0
2018-01-30T01:27:03.733Z,0
2018-01-30T01:28:13.326Z,0
2018-01-30T01:29:23.385Z,0
2018-01-30T01:30:33.447Z,0
2018-01-30T01:31:43.484Z,0
2018-01-30T01:32:53.528Z,0
2018-01-30T01:34:03.629Z,0
2018-01-30T01:35:13.415Z,0
2018-01-30T01:36:23.466Z,0
2018-01-30T01:37:33.523Z,0
2018-01-30T01:38:43.575Z,0
2018-01-30T01:39:53.390Z,0
2018-01-30T01:41:03.444Z,0
2018-01-30T01:42:13.500Z,0
2018-01-30T01:43:23.274Z,0
2018-01-30T01:44:33.329Z,0
2018-01-30T01:45:43.372Z,0
2018-01-30T01:46:53.433Z,0
2018-01-30T01:48:03.470Z,0
2018-01-30T01:49:13.534Z,0
2018-01-30T01:50:23.584Z,0
2018-01-30T01:51:33.467Z,0
2018-01-30T01:52:43.510Z,0
2018-01-30T01:53:53.546Z,0
2018-01-30T01:55:03.087Z,0
2018-01-30T01:56:13.133Z,0
2018-01-30T01:57:23.677Z,0
2018-01-30T01:58:33.466Z,0
2018-01-30T01:59:43.516Z,0
2018-01-30T02:00:53.323Z,0
2018-01-30T02:02:03.375Z,0
2018-01-30T02:03:13.227Z,0
2018-01-30T02:04:23.261Z,0
2018-01-30T02:05:33.319Z,0
2018-01-30T02:06:43.437Z,0
2018-01-30T02:07:53.237Z,0
2018-01-30T02:09:03.294Z,0
2018-01-30T02:10:13.340Z,0
2018-01-30T02:11:23.120Z,0
2018-01-30T02:12:32.906Z,0
2018-01-30T02:13:42.954Z,0
2018-01-30T02:14:52.795Z,0
2018-01-30T02:16:04.326Z,0
2018-01-30T02:17:14.390Z,0
2018-01-30T02:18:24.430Z,0
2018-01-30T02:19:34.478Z,0
2018-01-30T02:20:44.522Z,0
2018-01-30T02:21:55.466Z,0
2018-01-30T02:23:05.528Z,0
2018-01-30T02:24:15.581Z,0
2018-01-30T02:25:25.645Z,0
2018-01-30T02:26:35.432Z,0
2018-01-30T02:27:45.222Z,0
2018-01-30T02:28:55.007Z,0
2018-01-30T02:30:05.058Z,0
2018-01-30T02:31:15.108Z,0
2018-01-30T02:32:25.214Z,0
2018-01-30T02:33:35.274Z,0
2018-01-30T02:34:45.106Z,0
2018-01-30T02:35:54.983Z,0
2018-01-30T02:37:04.784Z,0
2018-01-30T02:38:14.826Z,0
2018-01-30T02:39:24.633Z,0
2018-01-30T02:40:34.690Z,0
2018-01-30T02:41:44.751Z,0
2018-01-30T02:42:54.803Z,0
2018-01-30T02:44:04.864Z,0
2018-01-30T02:45:14.922Z,0
2018-01-30T02:46:24.973Z,0
2018-01-30T02:47:35.044Z,0
2018-01-30T02:48:45.094Z,0
2018-01-30T02:49:54.932Z,0
2018-01-30T02:51:04.484Z,0
2018-01-30T02:52:14.530Z,0
2018-01-30T02:53:24.334Z,0
2018-01-30T02:54:34.164Z,0
2018-01-30T02:55:44.007Z,0
2018-01-30T02:56:54.076Z,0
2018-01-30T02:58:03.858Z,0
2018-01-30T02:59:13.651Z,0
2018-01-30T03:00:22.923Z,0
2018-01-30T03:01:32.514Z,0
2018-01-30T03:02:42.565Z,0
2018-01-30T03:34:39.135Z,0
2018-01-30T03:35:48.911Z,0
2018-01-30T03:36:58.419Z,0
2018-01-30T03:38:08.459Z,0
2018-01-30T03:39:18.492Z,0
2018-01-30T03:40:28.554Z,0
2018-01-30T03:41:38.588Z,0
2018-01-30T03:42:48.368Z,0
2018-01-30T03:43:58.398Z,0
2018-01-30T03:45:08.194Z,0
2018-01-30T03:46:18.323Z,0
2018-01-30T03:47:28.370Z,0
2018-01-30T03:48:38.161Z,0
2018-01-30T03:49:48.201Z,0
2018-01-30T03:50:58.253Z,0
2018-01-30T03:52:08.352Z,0
2018-01-30T03:53:18.407Z,0
2018-01-30T03:54:28.449Z,0
2018-01-30T03:55:38.510Z,0
2018-01-30T03:56:48.302Z,0
2018-01-30T03:57:58.357Z,0
2018-01-30T03:59:08.160Z,0
2018-01-30T04:00:18.204Z,0
2018-01-30T04:01:28.245Z,0
2018-01-30T04:02:38.307Z,0
2018-01-30T04:03:48.094Z,0
2018-01-30T04:04:57.624Z,0
2018-01-30T04:06:07.652Z,0
2018-01-30T04:07:17.699Z,0
2018-01-30T04:08:27.484Z,0
2018-01-30T04:09:37.538Z,0
2018-01-30T04:10:47.317Z,0
2018-01-30T04:11:57.376Z,0
2018-01-30T04:13:07.431Z,0
2018-01-30T04:14:17.486Z,0
2018-01-30T04:15:27.530Z,0
2018-01-30T04:16:37.581Z,0
2018-01-30T04:17:47.375Z,0
2018-01-30T04:18:56.915Z,0
2018-01-30T04:20:06.981Z,0
2018-01-30T04:21:17.035Z,0
2018-01-30T04:22:27.109Z,0
2018-01-30T04:23:37.667Z,0
2018-01-30T04:24:47.512Z,0
2018-01-30T04:25:57.566Z,0
2018-01-30T04:27:07.615Z,0
2018-01-30T04:28:17.681Z,0
2018-01-30T04:29:27.731Z,0
2018-01-30T04:30:37.539Z,0
2018-01-30T04:31:47.597Z,0
2018-01-30T04:32:57.656Z,0
2018-01-30T04:34:07.726Z,0
2018-01-30T04:35:17.773Z,0
2018-01-30T04:36:27.837Z,0
2018-01-30T04:37:37.889Z,0
2018-01-30T04:38:47.992Z,0
2018-01-30T04:39:58.026Z,0
2018-01-30T04:41:07.828Z,0
2018-01-30T04:42:17.866Z,0
2018-01-30T04:43:27.403Z,0
2018-01-30T04:44:37.489Z,0
2018-01-30T04:45:47.543Z,0
2018-01-30T04:46:57.588Z,0
2018-01-30T04:48:07.633Z,0
2018-01-30T04:49:17.412Z,0
2018-01-30T04:50:27.392Z,0
2018-01-30T04:51:37.439Z,0
2018-01-30T04:52:47.501Z,0
2018-01-30T04:53:57.279Z,0
2018-01-30T04:55:07.076Z,0
2018-01-30T04:56:17.168Z,0
2018-01-30T04:57:27.225Z,0
2018-01-30T04:58:37.286Z,0
2018-01-30T04:59:47.351Z,0
2018-01-30T05:00:57.397Z,0
2018-01-30T05:02:07.267Z,0
2018-01-30T05:03:17.306Z,0
2018-01-30T05:04:27.345Z,0
2018-01-30T05:05:37.381Z,0
2018-01-30T05:06:47.427Z,0
2018-01-30T05:07:57.461Z,0
2018-01-30T05:09:07.573Z,0
2018-01-30T05:10:17.641Z,0
2018-01-30T05:11:27.687Z,0
2018-01-30T05:12:37.822Z,0
2018-01-30T05:13:47.878Z,0
2018-01-30T05:14:57.670Z,0
2018-01-30T05:16:07.740Z,0
2018-01-30T05:17:17.523Z,0
2018-01-30T05:18:27.579Z,0
2018-01-30T05:19:37.419Z,0
2018-01-30T05:20:47.224Z,0
2018-01-30T05:21:57.004Z,0
2018-01-30T05:23:07.068Z,0
2018-01-30T05:24:17.125Z,0
2018-01-30T05:25:27.256Z,0
2018-01-30T05:26:37.302Z,0
2018-01-30T05:27:47.333Z,0
2018-01-30T05:28:57.385Z,0
2018-01-30T05:30:07.200Z,0
2018-01-30T05:31:16.993Z,0
2018-01-30T05:32:26.778Z,0
2018-01-30T05:33:36.828Z,0
2018-01-30T05:34:46.862Z,0
2018-01-30T05:35:56.948Z,0
2018-01-30T05:37:07.000Z,0
2018-01-30T05:38:17.058Z,0
2018-01-30T05:39:27.102Z,0
2018-01-30T05:40:37.145Z,0
2018-01-30T05:41:47.248Z,0
2018-01-30T05:42:57.330Z,0
2018-01-30T05:44:06.864Z,0
2018-01-30T05:45:16.906Z,0
2018-01-30T05:46:26.694Z,0
2018-01-30T05:47:36.504Z,0
2018-01-30T05:48:46.591Z,0
2018-01-30T05:49:56.372Z,0
2018-01-30T05:51:06.163Z,0
2018-01-30T05:52:15.950Z,0
2018-01-30T05:53:25.759Z,0
2018-01-30T05:54:35.553Z,0
2018-01-30T05:55:45.625Z,0
2018-01-30T05:56:55.673Z,0
2018-01-30T05:58:05.738Z,0
2018-01-30T05:59:15.518Z,0
2018-01-30T06:00:25.657Z,0
2018-01-30T06:01:35.182Z,0
2018-01-30T06:02:45.242Z,0
2018-01-30T06:03:55.020Z,4
2018-01-30T06:05:04.836Z,4
2018-01-30T06:06:14.957Z,4
2018-01-30T06:07:24.745Z,0
2018-01-30T06:08:34.800Z,0
2018-01-30T06:09:44.852Z,4
2018-01-30T06:10:54.120Z,4
2018-01-30T06:12:03.655Z,4
2018-01-30T06:13:13.727Z,4
2018-01-30T06:14:23.789Z,8
2018-01-30T06:15:33.836Z,8
2018-01-30T06:16:43.625Z,12
2018-01-30T06:17:53.414Z,12
2018-01-30T06:19:03.220Z,12
2018-01-30T06:20:13.267Z,16
2018-01-30T06:21:23.306Z,16
2018-01-30T06:22:33.356Z,20
2018-01-30T06:23:43.152Z,24
2018-01-30T06:24:52.679Z,28
2018-01-30T06:26:02.726Z,32
2018-01-30T06:27:12.763Z,40
2018-01-30T06:28:22.815Z,44
2018-01-30T06:29:32.920Z,48
2018-01-30T06:30:42.969Z,56
2018-01-30T06:31:52.811Z,72
2018-01-30T06:33:02.607Z,100
2018-01-30T06:34:12.653Z,124
2018-01-30T06:35:22.710Z,132
2018-01-30T06:36:32.766Z,144
2018-01-30T06:37:42.818Z,148
2018-01-30T06:38:52.354Z,144
2018-01-30T06:40:02.440Z,148
2018-01-30T06:41:12.289Z,172
2018-01-30T06:42:22.084Z,196
2018-01-30T06:43:32.109Z,212
2018-01-30T06:44:41.904Z,212
2018-01-30T06:45:51.962Z,212
2018-01-30T06:47:02.012Z,224
2018-01-30T06:48:11.799Z,228
2018-01-30T06:49:21.890Z,240
2018-01-30T06:50:31.923Z,240
2018-01-30T06:51:41.703Z,252
2018-01-30T06:52:51.493Z,272
2018-01-30T06:54:01.343Z,284
2018-01-30T06:55:11.389Z,296
2018-01-30T06:56:21.221Z,300
2018-01-30T06:57:31.027Z,296
2018-01-30T06:58:40.565Z,304
2018-01-30T06:59:50.716Z,312
2018-01-30T07:01:00.514Z,328
2018-01-30T07:02:10.554Z,332
2018-01-30T07:03:20.604Z,312
2018-01-30T07:04:30.665Z,396
2018-01-30T07:05:40.754Z,276
2018-01-30T07:06:50.547Z,288
2018-01-30T07:08:00.604Z,304
2018-01-30T07:09:10.388Z,316
2018-01-30T07:10:20.445Z,344
2018-01-30T07:11:30.239Z,392
2018-01-30T07:12:39.767Z,436
2018-01-30T07:13:49.819Z,476
2018-01-30T07:14:59.873Z,504
2018-01-30T07:16:09.918Z,504
2018-01-30T07:17:20.002Z,520
2018-01-30T07:18:30.045Z,516
2018-01-30T07:19:39.843Z,476
2018-01-30T07:20:49.902Z,472
2018-01-30T07:21:59.956Z,492
2018-01-30T07:23:09.747Z,520
2018-01-30T07:24:19.814Z,524
2018-01-30T07:25:29.867Z,520
2018-01-30T07:26:39.923Z,544
2018-01-30T07:27:49.718Z,540
2018-01-30T07:28:59.770Z,564
2018-01-30T07:30:09.829Z,612
2018-01-30T07:31:19.894Z,636
2018-01-30T07:32:29.953Z,704
2018-01-30T07:33:39.762Z,788
2018-01-30T07:34:50.061Z,876
2018-01-30T07:36:00.119Z,952
2018-01-30T07:37:10.518Z,980
2018-01-30T07:38:20.578Z,948
2018-01-30T07:39:30.634Z,896
2018-01-30T07:40:40.746Z,896
2018-01-30T07:41:50.796Z,912
2018-01-30T07:43:00.589Z,908
2018-01-30T07:44:10.120Z,928
2018-01-30T07:45:20.189Z,936
2018-01-30T07:46:30.227Z,948
2018-01-30T07:47:40.340Z,932
2018-01-30T07:48:50.131Z,936
2018-01-30T07:50:00.179Z,968
2018-01-30T07:51:10.236Z,984
2018-01-30T07:52:20.337Z,1012
2018-01-30T07:53:30.387Z,1076
2018-01-30T07:54:40.430Z,1104
2018-01-30T07:55:50.476Z,1148
2018-01-30T07:57:00.556Z,1172
2018-01-30T07:58:10.413Z,1240
2018-01-30T07:59:20.452Z,1300
2018-01-30T08:00:30.535Z,1284
2018-01-30T08:01:40.609Z,1320
2018-01-30T08:02:50.450Z,1460
2018-01-30T08:04:00.601Z,1524
2018-01-30T08:05:10.438Z,1612
2018-01-30T08:06:20.506Z,1588
2018-01-30T08:07:30.579Z,1368
2018-01-30T08:08:40.656Z,1296
2018-01-30T08:09:50.468Z,1372
2018-01-30T08:11:00.527Z,1472
2018-01-30T08:12:10.586Z,1500
2018-01-30T08:13:20.657Z,1476
2018-01-30T08:14:30.734Z,1396
2018-01-30T08:15:40.861Z,1388
2018-01-30T08:16:50.972Z,1432
2018-01-30T08:18:01.094Z,1448
2018-01-30T08:19:10.915Z,1432
2018-01-30T08:20:21.000Z,1436
2018-01-30T08:21:31.113Z,1540
2018-01-30T08:22:40.928Z,1648
2018-01-30T08:23:50.983Z,1696
2018-01-30T08:25:00.775Z,1748
2018-01-30T08:26:10.567Z,1764
2018-01-30T08:27:20.623Z,1772
2018-01-30T08:28:30.700Z,1824
2018-01-30T08:29:40.782Z,1904
2018-01-30T08:30:50.885Z,2032
2018-01-30T08:32:00.969Z,2124
2018-01-30T08:33:11.046Z,2160
2018-01-30T08:34:20.854Z,2168
2018-01-30T08:35:30.668Z,2152
2018-01-30T08:36:40.734Z,2128
2018-01-30T08:37:50.538Z,2116
2018-01-30T08:39:00.320Z,2136
2018-01-30T08:40:10.397Z,2172
2018-01-30T08:41:20.456Z,2208
2018-01-30T08:42:30.258Z,2268
2018-01-30T08:43:40.373Z,2320
2018-01-30T08:44:50.423Z,2384
2018-01-30T08:46:00.500Z,2448
2018-01-30T08:47:10.557Z,2444
2018-01-30T08:48:20.617Z,2516
2018-01-30T08:49:30.439Z,2580
2018-01-30T08:50:40.571Z,2584
2018-01-30T08:51:50.632Z,2648
2018-01-30T08:53:00.685Z,2936
2018-01-30T08:54:10.774Z,2776
2018-01-30T08:55:20.822Z,2596
2018-01-30T08:56:30.882Z,2544
2018-01-30T08:57:40.684Z,2656
2018-01-30T08:58:50.753Z,2948
2018-01-30T09:00:00.535Z,4976
2018-01-30T09:01:10.374Z,5888
2018-01-30T09:02:20.434Z,5968
2018-01-30T09:03:30.500Z,3056
2018-01-30T09:04:40.612Z,2900
2018-01-30T09:05:50.669Z,2952
2018-01-30T09:07:00.785Z,2996
2018-01-30T09:08:10.851Z,3116
2018-01-30T09:09:20.984Z,4988
2018-01-30T09:10:31.052Z,3244
2018-01-30T09:11:41.122Z,2804
2018-01-30T09:12:51.186Z,2628
2018-01-30T09:14:01.238Z,2476
2018-01-30T09:15:11.359Z,2520
2018-01-30T09:16:21.413Z,2328
2018-01-30T09:17:31.478Z,2428
2018-01-30T09:18:41.675Z,2756
2018-01-30T09:19:51.764Z,2916
2018-01-30T09:21:01.831Z,2976
2018-01-30T09:22:11.892Z,2956
2018-01-30T09:23:21.693Z,2832
2018-01-30T09:24:31.534Z,2776
2018-01-30T09:25:41.597Z,2740
2018-01-30T09:26:51.659Z,2768
2018-01-30T09:28:01.702Z,2748
2018-01-30T09:29:11.785Z,2824
2018-01-30T09:30:21.906Z,2724
2018-01-30T09:31:31.956Z,2524
2018-01-30T09:32:42.006Z,2460
2018-01-30T09:33:51.824Z,2576
2018-01-30T09:35:01.368Z,2392
2018-01-30T09:36:11.538Z,2304
2018-01-30T09:37:21.597Z,2392
2018-01-30T09:38:31.658Z,2388
2018-01-30T09:39:41.735Z,2408
2018-01-30T09:40:51.536Z,2640
2018-01-30T09:42:01.647Z,2968
2018-01-30T09:43:11.505Z,3044
2018-01-30T09:44:21.313Z,2984
2018-01-30T09:45:31.361Z,2968
2018-01-30T09:46:41.185Z,2852
2018-01-30T09:47:51.303Z,2864
2018-01-30T09:49:01.376Z,2916
2018-01-30T09:50:11.449Z,3032
2018-01-30T09:51:21.243Z,3324
2018-01-30T09:52:31.031Z,4044
2018-01-30T09:53:41.092Z,6544
2018-01-30T09:54:51.178Z,3636
2018-01-30T09:56:01.235Z,3312
2018-01-30T09:57:10.777Z,3080
2018-01-30T09:58:20.838Z,2872
2018-01-30T09:59:30.668Z,2756
2018-01-30T10:00:40.709Z,2456
2018-01-30T10:01:50.821Z,2132
2018-01-30T10:03:00.882Z,1928
2018-01-30T10:04:10.941Z,1868
2018-01-30T10:05:20.766Z,1900
2018-01-30T10:06:30.833Z,2000
2018-01-30T10:07:40.922Z,2116
2018-01-30T10:08:50.995Z,2216
2018-01-30T10:10:01.058Z,2256
2018-01-30T10:11:11.127Z,2244
2018-01-30T10:12:20.929Z,2288
2018-01-30T10:13:30.780Z,2368
2018-01-30T10:14:40.858Z,2408
2018-01-30T10:15:50.914Z,2404
2018-01-30T10:17:00.448Z,2428
2018-01-30T10:18:10.247Z,2448
2018-01-30T10:19:20.371Z,2552
2018-01-30T10:20:30.460Z,2696
2018-01-30T10:21:42.464Z,2768
2018-01-30T10:22:52.528Z,2700
2018-01-30T10:24:02.586Z,2636
2018-01-30T10:25:12.381Z,2704
2018-01-30T10:26:23.801Z,2728
2018-01-30T10:27:33.865Z,2680
2018-01-30T10:28:43.696Z,2752
2018-01-30T10:29:53.736Z,2996
2018-01-30T10:31:03.661Z,3248
2018-01-30T10:32:13.803Z,3464
2018-01-30T10:33:23.883Z,3568
2018-01-30T10:34:33.688Z,3812
2018-01-30T10:35:43.233Z,4004
2018-01-30T10:36:53.351Z,7924
2018-01-30T10:38:03.452Z,3696
2018-01-30T10:39:13.278Z,3512
2018-01-30T10:40:23.397Z,3464
2018-01-30T10:41:33.496Z,4512
2018-01-30T10:42:45.963Z,3800
2018-01-30T10:43:56.029Z,3260
2018-01-30T10:45:06.092Z,3692
2018-01-30T10:46:16.144Z,2868
2018-01-30T10:47:26.257Z,2892
2018-01-30T10:48:36.316Z,2904
2018-01-30T10:49:46.136Z,2792
2018-01-30T10:50:56.203Z,2656
2018-01-30T10:52:06.011Z,2612
2018-01-30T10:53:15.814Z,2472
2018-01-30T10:54:25.947Z,2852
2018-01-30T10:55:36.078Z,2704
2018-01-30T10:56:47.180Z,2408
2018-01-30T10:57:57.259Z,2472
2018-01-30T10:59:07.329Z,2520
2018-01-30T11:00:17.416Z,3924
2018-01-30T11:01:27.498Z,6536
2018-01-30T11:02:37.327Z,6512
2018-01-30T11:03:47.299Z,6548
2018-01-30T11:04:57.365Z,6568
2018-01-30T11:06:07.485Z,6588
2018-01-30T11:07:17.538Z,6620
2018-01-30T11:08:27.625Z,6652
2018-01-30T11:09:37.706Z,6680
2018-01-30T11:10:47.764Z,6688
2018-01-30T11:11:57.860Z,6728
2018-01-30T11:13:07.923Z,6788
2018-01-30T11:14:17.991Z,6792
2018-01-30T11:15:28.061Z,6836
2018-01-30T11:16:38.130Z,6856
2018-01-30T11:17:47.983Z,6892
2018-01-30T11:18:58.059Z,6920
2018-01-30T11:20:07.892Z,6932
2018-01-30T11:21:17.444Z,6976
2018-01-30T11:22:27.499Z,6980
2018-01-30T11:23:37.633Z,7044
2018-01-30T11:24:47.692Z,7048
2018-01-30T11:25:58.213Z,7064
2018-01-30T11:27:08.277Z,7072
2018-01-30T11:28:18.359Z,7064
2018-01-30T11:29:28.164Z,7080
2018-01-30T11:30:38.220Z,7104
2018-01-30T11:31:48.281Z,7104
2018-01-30T11:32:58.393Z,7208
2018-01-30T11:34:08.478Z,7216
2018-01-30T11:35:18.524Z,7164
2018-01-30T11:36:28.586Z,7168
2018-01-30T11:37:38.380Z,7128
2018-01-30T11:38:48.449Z,7160
2018-01-30T11:39:58.015Z,7192
2018-01-30T11:41:08.133Z,7184
2018-01-30T11:42:18.210Z,7292
2018-01-30T11:43:29.293Z,7336
2018-01-30T11:44:39.358Z,7292
2018-01-30T11:45:49.154Z,7248
2018-01-30T11:46:59.207Z,7280
2018-01-30T11:48:09.289Z,7284
2018-01-30T11:49:19.365Z,7336
2018-01-30T11:50:29.167Z,7364
2018-01-30T11:51:38.964Z,7308
2018-01-30T11:52:49.039Z,7408
2018-01-30T11:53:59.103Z,7364
2018-01-30T11:55:09.190Z,7340
2018-01-30T11:56:19.251Z,7288
2018-01-30T11:57:29.304Z,7284
2018-01-30T11:58:39.215Z,7312
2018-01-30T11:59:49.279Z,7260
2018-01-30T12:00:59.378Z,7216
2018-01-30T12:02:09.575Z,7248
2018-01-30T12:03:19.654Z,5028
2018-01-30T12:04:29.282Z,7212
2018-01-30T12:05:39.341Z,7268
2018-01-30T12:06:49.399Z,7212
2018-01-30T12:07:59.492Z,7212
2018-01-30T12:09:09.545Z,7224
2018-01-30T12:10:19.352Z,7192
2018-01-30T12:11:29.402Z,7192
2018-01-30T12:12:39.210Z,7192
2018-01-30T12:13:49.016Z,7172
2018-01-30T12:14:59.059Z,6996
2018-01-30T12:16:09.180Z,7224
2018-01-30T12:17:19.259Z,7268
2018-01-30T12:18:29.045Z,7200
2018-01-30T12:19:39.117Z,7196
2018-01-30T12:20:49.164Z,7200
2018-01-30T12:21:59.026Z,7232
2018-01-30T12:23:09.096Z,7176
2018-01-30T12:24:18.891Z,7248
2018-01-30T12:25:28.967Z,7340
2018-01-30T12:26:39.058Z,7440
2018-01-30T12:27:49.195Z,7612
2018-01-30T12:28:59.262Z,7648
2018-01-30T12:30:09.335Z,7504
2018-01-30T12:31:19.400Z,7508
2018-01-30T12:32:29.483Z,7512
2018-01-30T12:33:39.357Z,7492
2018-01-30T12:34:49.409Z,7412
2018-01-30T12:35:58.958Z,7428
2018-01-30T12:37:09.018Z,7484
2018-01-30T12:38:19.104Z,6456
2018-01-30T12:39:28.905Z,7468
2018-01-30T12:40:38.724Z,7468
2018-01-30T12:41:48.661Z,7460
2018-01-30T12:42:58.732Z,7432
2018-01-30T12:44:08.547Z,7428
2018-01-30T12:45:18.726Z,7460
2018-01-30T12:46:28.266Z,7412
2018-01-30T12:47:38.326Z,7320
2018-01-30T12:48:48.271Z,7248
2018-01-30T12:49:58.351Z,7216
2018-01-30T12:51:08.472Z,1904
2018-01-30T12:52:18.551Z,7264
2018-01-30T12:53:28.347Z,7232
2018-01-30T12:54:38.158Z,7356
2018-01-30T12:55:48.203Z,5096
2018-01-30T12:56:58.270Z,2584
2018-01-30T12:58:08.077Z,7396
2018-01-30T12:59:17.867Z,5316
2018-01-30T13:00:27.942Z,2496
2018-01-30T13:01:38.004Z,1892
2018-01-30T13:02:48.073Z,2104
2018-01-30T13:03:58.135Z,2024
2018-01-30T13:05:08.207Z,2224
2018-01-30T13:06:18.272Z,6096
2018-01-30T13:07:28.095Z,4188
2018-01-30T13:08:39.351Z,7096
2018-01-30T13:09:49.141Z,6928
2018-01-30T13:10:58.946Z,2080
2018-01-30T13:12:08.765Z,6500
2018-01-30T13:13:18.848Z,6472
2018-01-30T13:14:28.697Z,5976
2018-01-30T13:15:38.829Z,6268
2018-01-30T13:16:48.901Z,6216
2018-01-30T13:17:58.957Z,6200
2018-01-30T13:19:09.047Z,6064
2018-01-30T13:20:19.182Z,6084
2018-01-30T13:21:29.233Z,1928
2018-01-30T13:22:39.329Z,6052
2018-01-30T13:23:49.133Z,5972
2018-01-30T13:24:59.198Z,5892
2018-01-30T13:26:09.073Z,1824
2018-01-30T13:27:18.939Z,1852
2018-01-30T13:28:28.743Z,3520
2018-01-30T13:29:38.816Z,1972
2018-01-30T13:30:48.882Z,3884
2018-01-30T13:31:58.946Z,1804
2018-01-30T13:33:08.986Z,2460
2018-01-30T13:34:18.776Z,1796
2018-01-30T13:35:28.308Z,1764
2018-01-30T13:36:37.855Z,5436
2018-01-30T13:37:47.991Z,5424
2018-01-30T13:38:58.054Z,5464
2018-01-30T13:40:08.114Z,1876
2018-01-30T13:41:17.914Z,1852
2018-01-30T13:42:27.973Z,1832
2018-01-30T13:43:38.082Z,1880
2018-01-30T13:44:48.135Z,4276
2018-01-30T13:45:58.196Z,1964
2018-01-30T13:47:08.259Z,1960
2018-01-30T13:48:18.417Z,1876
2018-01-30T13:49:28.472Z,2004
2018-01-30T13:50:38.526Z,2296
2018-01-30T13:51:48.578Z,5336
2018-01-30T13:52:58.632Z,2520
2018-01-30T13:54:08.440Z,2656
2018-01-30T13:55:18.305Z,2888
2018-01-30T13:56:27.925Z,3484
2018-01-30T13:57:37.734Z,5484
2018-01-30T13:58:47.794Z,4256
2018-01-30T13:59:57.856Z,2488
2018-01-30T14:01:07.965Z,2416
2018-01-30T14:02:19.015Z,2464
2018-01-30T14:03:28.860Z,3564
2018-01-30T14:04:38.923Z,3564
2018-01-30T14:05:49.002Z,4660
2018-01-30T14:06:59.084Z,4632
2018-01-30T14:08:09.152Z,4384
2018-01-30T14:09:19.209Z,4328
2018-01-30T14:10:29.309Z,4304
2018-01-30T14:11:39.409Z,4180
2018-01-30T14:12:49.251Z,4272
2018-01-30T14:13:59.056Z,4172
2018-01-30T14:15:09.108Z,4072
2018-01-30T14:16:19.225Z,4052
2018-01-30T14:17:29.323Z,3980
2018-01-30T14:18:39.364Z,3912
2018-01-30T14:19:49.612Z,3884
2018-01-30T14:20:59.527Z,3868
2018-01-30T14:22:09.591Z,3828
2018-01-30T14:23:19.678Z,3816
2018-01-30T14:24:29.738Z,3792
2018-01-30T14:25:39.262Z,3692
2018-01-30T14:26:49.334Z,3424
2018-01-30T14:27:59.396Z,3540
2018-01-30T14:29:09.203Z,3488
2018-01-30T14:30:19.264Z,3452
2018-01-30T14:31:29.058Z,3380
2018-01-30T14:32:39.107Z,3396
2018-01-30T14:33:48.981Z,3348
2018-01-30T14:34:59.124Z,3348
2018-01-30T14:36:08.667Z,3336
2018-01-30T14:37:18.725Z,3256
2018-01-30T14:38:28.515Z,3212
2018-01-30T14:39:38.681Z,3176
2018-01-30T14:40:48.485Z,3064
2018-01-30T14:41:58.543Z,2992
2018-01-30T14:43:08.632Z,1708
2018-01-30T14:44:18.750Z,2816
2018-01-30T14:45:28.847Z,2756
2018-01-30T14:46:38.917Z,2456
2018-01-30T14:47:48.991Z,2572
2018-01-30T14:48:58.826Z,2492
2018-01-30T14:50:08.903Z,2424
2018-01-30T14:51:18.977Z,2328
2018-01-30T14:52:28.780Z,2276
2018-01-30T14:53:38.849Z,2164
2018-01-30T14:54:48.645Z,2028
2018-01-30T14:55:58.733Z,1928
2018-01-30T14:57:08.801Z,1836
2018-01-30T14:58:18.855Z,1748
2018-01-30T14:59:28.915Z,1648
2018-01-30T15:00:38.997Z,1468
2018-01-30T15:01:49.099Z,1480
2018-01-30T15:02:59.025Z,1388
2018-01-30T15:04:09.127Z,1256
2018-01-30T15:05:19.250Z,1232
2018-01-30T15:06:29.300Z,1180
2018-01-30T15:07:39.161Z,1128
2018-01-30T15:08:49.206Z,1072
2018-01-30T15:09:59.299Z,984
2018-01-30T15:11:09.413Z,864
2018-01-30T15:12:20.364Z,824
2018-01-30T15:13:30.171Z,800
2018-01-30T15:14:40.262Z,776
2018-01-30T15:15:50.369Z,748
2018-01-30T15:17:00.426Z,724
2018-01-30T15:18:10.480Z,696
2018-01-30T15:19:20.533Z,672
2018-01-30T15:20:30.611Z,652
2018-01-30T15:21:40.721Z,640
2018-01-30T15:22:50.805Z,620
2018-01-30T15:24:00.867Z,608
2018-01-30T15:25:10.675Z,588
2018-01-30T15:26:20.465Z,564
2018-01-30T15:27:30.554Z,544
2018-01-30T15:28:40.365Z,520
2018-01-30T15:29:50.182Z,496
2018-01-30T15:30:59.988Z,472
2018-01-30T15:32:10.084Z,448
2018-01-30T15:33:20.135Z,424
2018-01-30T15:34:30.089Z,396
2018-01-30T15:35:40.162Z,376
2018-01-30T15:36:50.969Z,348
2018-01-30T15:38:01.035Z,328
2018-01-30T15:39:11.148Z,308
2018-01-30T15:40:20.966Z,280
2018-01-30T15:41:30.798Z,260
2018-01-30T15:42:40.837Z,236
2018-01-30T15:43:50.731Z,216
2018-01-30T15:45:00.824Z,196
2018-01-30T15:46:10.876Z,176
2018-01-30T15:47:20.938Z,160
2018-01-30T15:48:30.750Z,144
2018-01-30T15:49:40.901Z,132
2018-01-30T15:50:50.750Z,116
2018-01-30T15:52:00.834Z,104
2018-01-30T15:53:10.882Z,92
2018-01-30T15:54:20.937Z,80
2018-01-30T15:55:30.986Z,72
2018-01-30T15:56:41.151Z,60
2018-01-30T15:57:51.222Z,52
2018-01-30T15:59:01.318Z,44
2018-01-30T16:00:11.420Z,36
2018-01-30T16:01:21.209Z,28
2018-01-30T16:02:31.139Z,24
2018-01-30T16:03:41.217Z,20
2018-01-30T16:04:51.278Z,16
2018-01-30T16:06:00.819Z,12
2018-01-30T16:07:10.878Z,12
2018-01-30T16:08:21.560Z,8
2018-01-30T16:09:31.623Z,8
2018-01-30T16:10:41.689Z,4
2018-01-30T16:11:51.745Z,4
2018-01-30T16:13:01.811Z,0
2018-01-30T16:14:11.868Z,4
2018-01-30T16:15:21.928Z,4
2018-01-30T16:16:31.993Z,0
2018-01-30T16:17:42.042Z,0
2018-01-30T16:18:52.093Z,4
2018-01-30T16:20:02.167Z,4
2018-01-30T16:21:12.234Z,0
2018-01-30T16:22:22.680Z,0
2018-01-30T16:23:32.732Z,0
2018-01-30T16:24:42.835Z,0
2018-01-30T16:25:52.420Z,0
2018-01-30T16:27:02.464Z,0
2018-01-30T16:28:12.258Z,0
2018-01-30T16:29:22.320Z,0
2018-01-30T16:30:32.116Z,0
2018-01-30T16:31:42.165Z,0
2018-01-30T16:32:52.226Z,0
2018-01-30T16:34:02.315Z,0
2018-01-30T16:35:12.389Z,0
2018-01-30T16:36:22.504Z,0
2018-01-30T16:37:32.310Z,0
2018-01-30T16:38:42.140Z,0
2018-01-30T16:39:52.190Z,0
2018-01-30T16:41:02.258Z,0
2018-01-30T16:42:12.442Z,0
2018-01-30T16:43:22.568Z,0
2018-01-30T16:44:32.388Z,0
2018-01-30T16:45:42.470Z,0
2018-01-30T16:46:52.536Z,0